sensor_id;sensor_type;location;lat;lon;timestamp;pressure;altitude;pressure_sealevel;temperature;humidity
31239;BME280;17871;31.584;74.450;2023-04-22T00:00:16;97866.09;;;22.32;53.03
31239;BME280;17871;31.584;74.450;2023-04-22T00:02:51;97874.78;;;22.31;53.79
31239;BME280;17871;31.584;74.450;2023-04-22T00:05:22;97867.53;;;22.38;53.21
31239;BME280;17871;31.584;74.450;2023-04-22T00:07:55;97875.50;;;22.35;53.44
31239;BME280;17871;31.584;74.450;2023-04-22T00:10:26;97884.59;;;22.43;53.05
31239;BME280;17871;31.584;74.450;2023-04-22T00:12:57;97894.88;;;22.29;53.86
31239;BME280;17871;31.584;74.450;2023-04-22T00:15:26;97900.34;;;22.23;53.94
31239;BME280;17871;31.584;74.450;2023-04-22T00:17:57;97912.09;;;22.32;54.27
31239;BME280;17871;31.584;74.450;2023-04-22T00:20:26;97924.97;;;22.35;54.18
31239;BME280;17871;31.584;74.450;2023-04-22T00:22:57;97931.31;;;22.29;54.28
31239;BME280;17871;31.584;74.450;2023-04-22T00:25:26;97945.38;;;22.25;54.23
31239;BME280;17871;31.584;74.450;2023-04-22T00:27:55;97947.53;;;22.34;54.37
31239;BME280;17871;31.584;74.450;2023-04-22T00:30:24;97950.69;;;22.41;54.09
31239;BME280;17871;31.584;74.450;2023-04-22T00:32:54;97953.59;;;22.35;54.32
31239;BME280;17871;31.584;74.450;2023-04-22T00:35:23;97965.72;;;22.36;53.95
31239;BME280;17871;31.584;74.450;2023-04-22T00:37:52;97977.22;;;22.30;54.43
31239;BME280;17871;31.584;74.450;2023-04-22T00:40:22;97980.91;;;22.26;54.57
31239;BME280;17871;31.584;74.450;2023-04-22T00:42:51;97983.38;;;22.29;54.67
31239;BME280;17871;31.584;74.450;2023-04-22T00:45:20;97986.59;;;22.34;54.48
31239;BME280;17871;31.584;74.450;2023-04-22T00:47:49;97990.59;;;22.41;54.71
31239;BME280;17871;31.584;74.450;2023-04-22T00:50:19;98002.69;;;22.23;55.57
31239;BME280;17871;31.584;74.450;2023-04-22T00:52:48;98011.28;;;22.44;54.45
31239;BME280;17871;31.584;74.450;2023-04-22T00:55:19;98016.44;;;22.46;54.55
31239;BME280;17871;31.584;74.450;2023-04-22T00:57:51;98022.81;;;22.57;54.31
31239;BME280;17871;31.584;74.450;2023-04-22T01:00:25;98026.03;;;22.62;53.80
31239;BME280;17871;31.584;74.450;2023-04-22T01:02:56;98044.94;;;22.49;53.85
31239;BME280;17871;31.584;74.450;2023-04-22T01:05:29;98049.56;;;22.61;54.07
31239;BME280;17871;31.584;74.450;2023-04-22T01:07:58;98082.03;;;22.35;54.87
31239;BME280;17871;31.584;74.450;2023-04-22T01:10:28;98062.59;;;22.42;54.49
31239;BME280;17871;31.584;74.450;2023-04-22T01:12:57;98073.72;;;22.46;54.80
31239;BME280;17871;31.584;74.450;2023-04-22T01:15:26;98088.00;;;22.37;55.36
31239;BME280;17871;31.584;74.450;2023-04-22T01:17:56;98093.06;;;22.40;55.26
31239;BME280;17871;31.584;74.450;2023-04-22T01:20:28;98103.75;;;22.34;55.51
31239;BME280;17871;31.584;74.450;2023-04-22T01:22:59;98117.91;;;22.29;55.68
31239;BME280;17871;31.584;74.450;2023-04-22T01:25:30;98162.81;;;22.13;55.59
31239;BME280;17871;31.584;74.450;2023-04-22T01:28:01;98187.78;;;22.17;55.70
31239;BME280;17871;31.584;74.450;2023-04-22T01:30:31;98151.59;;;22.32;54.32
31239;BME280;17871;31.584;74.450;2023-04-22T01:33:00;98214.69;;;22.38;54.45
31239;BME280;17871;31.584;74.450;2023-04-22T01:35:30;98194.69;;;22.39;53.36
31239;BME280;17871;31.584;74.450;2023-04-22T01:38:06;98223.38;;;22.57;53.50
31239;BME280;17871;31.584;74.450;2023-04-22T01:40:37;98225.41;;;22.71;52.77
31239;BME280;17871;31.584;74.450;2023-04-22T01:43:06;98222.59;;;22.75;51.81
31239;BME280;17871;31.584;74.450;2023-04-22T01:45:36;98238.16;;;22.77;51.53
31239;BME280;17871;31.584;74.450;2023-04-22T01:48:05;98236.06;;;22.85;51.00
31239;BME280;17871;31.584;74.450;2023-04-22T01:50:36;98228.81;;;22.92;50.96
31239;BME280;17871;31.584;74.450;2023-04-22T01:53:06;98230.22;;;22.99;50.69
31239;BME280;17871;31.584;74.450;2023-04-22T01:58:06;98231.50;;;23.09;49.81
31239;BME280;17871;31.584;74.450;2023-04-22T02:00:35;98242.91;;;23.25;49.65
31239;BME280;17871;31.584;74.450;2023-04-22T02:03:04;98252.78;;;23.37;48.69
31239;BME280;17871;31.584;74.450;2023-04-22T02:05:35;98254.84;;;23.49;48.40
31239;BME280;17871;31.584;74.450;2023-04-22T02:08:05;98260.88;;;23.68;47.87
31239;BME280;17871;31.584;74.450;2023-04-22T02:10:35;98269.78;;;23.64;47.54
31239;BME280;17871;31.584;74.450;2023-04-22T02:13:06;98269.19;;;23.76;47.62
31239;BME280;17871;31.584;74.450;2023-04-22T02:15:36;98281.94;;;23.83;47.24
31239;BME280;17871;31.584;74.450;2023-04-22T02:18:07;98297.25;;;23.90;47.42
31239;BME280;17871;31.584;74.450;2023-04-22T02:20:37;98290.19;;;23.92;47.23
31239;BME280;17871;31.584;74.450;2023-04-22T02:23:06;98299.63;;;24.13;47.35
31239;BME280;17871;31.584;74.450;2023-04-22T02:25:36;98299.19;;;24.04;47.59
31239;BME280;17871;31.584;74.450;2023-04-22T02:28:05;98301.66;;;24.07;48.19
31239;BME280;17871;31.584;74.450;2023-04-22T02:30:35;98294.41;;;24.13;48.05
31239;BME280;17871;31.584;74.450;2023-04-22T02:33:04;98285.72;;;24.13;47.76
31239;BME280;17871;31.584;74.450;2023-04-22T02:35:34;98268.13;;;24.16;47.76
31239;BME280;17871;31.584;74.450;2023-04-22T02:38:03;98264.44;;;24.20;47.11
31239;BME280;17871;31.584;74.450;2023-04-22T02:40:32;98254.41;;;24.30;46.89
31239;BME280;17871;31.584;74.450;2023-04-22T02:43:01;98258.84;;;24.28;46.91
31239;BME280;17871;31.584;74.450;2023-04-22T02:45:30;98248.00;;;24.36;46.84
31239;BME280;17871;31.584;74.450;2023-04-22T02:47:59;98239.63;;;24.29;46.50
31239;BME280;17871;31.584;74.450;2023-04-22T02:50:29;98230.41;;;24.56;45.79
31239;BME280;17871;31.584;74.450;2023-04-22T02:52:58;98225.28;;;24.70;45.21
31239;BME280;17871;31.584;74.450;2023-04-22T02:55:27;98221.88;;;24.53;45.23
31239;BME280;17871;31.584;74.450;2023-04-22T02:57:57;98210.13;;;24.77;45.32
31239;BME280;17871;31.584;74.450;2023-04-22T03:00:26;98207.88;;;24.87;45.53
31239;BME280;17871;31.584;74.450;2023-04-22T03:02:55;98195.63;;;24.71;45.64
31239;BME280;17871;31.584;74.450;2023-04-22T03:05:28;98158.09;;;24.72;45.99
31239;BME280;17871;31.584;74.450;2023-04-22T03:07:59;98137.25;;;24.55;47.02
31239;BME280;17871;31.584;74.450;2023-04-22T03:10:29;98116.47;;;24.69;46.44
31239;BME280;17871;31.584;74.450;2023-04-22T03:12:58;98073.88;;;24.67;47.38
31239;BME280;17871;31.584;74.450;2023-04-22T03:15:27;98066.03;;;24.67;47.66
31239;BME280;17871;31.584;74.450;2023-04-22T03:17:58;98060.13;;;24.79;46.77
31239;BME280;17871;31.584;74.450;2023-04-22T03:20:28;98078.47;;;24.95;46.71
31239;BME280;17871;31.584;74.450;2023-04-22T03:22:57;98089.75;;;24.96;45.29
31239;BME280;17871;31.584;74.450;2023-04-22T03:25:27;98102.25;;;25.36;44.41
31239;BME280;17871;31.584;74.450;2023-04-22T03:27:57;98123.00;;;25.39;44.26
31239;BME280;17871;31.584;74.450;2023-04-22T03:30:25;98125.94;;;24.88;45.38
31239;BME280;17871;31.584;74.450;2023-04-22T03:32:57;98133.88;;;24.86;45.79
31239;BME280;17871;31.584;74.450;2023-04-22T03:35:37;98138.72;;;25.23;45.33
31239;BME280;17871;31.584;74.450;2023-04-22T03:38:06;98150.78;;;25.57;44.10
31239;BME280;17871;31.584;74.450;2023-04-22T03:40:36;98146.44;;;25.72;44.49
31239;BME280;17871;31.584;74.450;2023-04-22T03:43:16;98150.25;;;25.96;43.14
31239;BME280;17871;31.584;74.450;2023-04-22T03:45:55;98164.47;;;26.36;44.05
31239;BME280;17871;31.584;74.450;2023-04-22T03:48:27;98171.78;;;26.59;43.68
31239;BME280;17871;31.584;74.450;2023-04-22T03:51:02;98174.81;;;26.67;43.04
31239;BME280;17871;31.584;74.450;2023-04-22T03:53:34;98178.53;;;27.06;42.30
31239;BME280;17871;31.584;74.450;2023-04-22T03:56:04;98167.13;;;26.93;42.05
31239;BME280;17871;31.584;74.450;2023-04-22T03:58:38;98172.41;;;27.19;41.54
31239;BME280;17871;31.584;74.450;2023-04-22T04:01:08;98160.44;;;27.42;41.13
31239;BME280;17871;31.584;74.450;2023-04-22T04:03:38;98156.00;;;27.57;39.95
31239;BME280;17871;31.584;74.450;2023-04-22T04:06:10;98159.50;;;27.16;40.41
31239;BME280;17871;31.584;74.450;2023-04-22T04:08:39;98149.06;;;27.29;39.97
31239;BME280;17871;31.584;74.450;2023-04-22T04:11:09;98138.78;;;27.53;40.87
31239;BME280;17871;31.584;74.450;2023-04-22T04:13:39;98140.00;;;27.87;41.17
31239;BME280;17871;31.584;74.450;2023-04-22T04:16:28;98142.72;;;28.12;40.54
31239;BME280;17871;31.584;74.450;2023-04-22T04:19:05;98141.88;;;28.24;38.85
31239;BME280;17871;31.584;74.450;2023-04-22T04:21:36;98140.94;;;28.38;38.12
31239;BME280;17871;31.584;74.450;2023-04-22T04:24:06;98145.13;;;28.40;37.35
31239;BME280;17871;31.584;74.450;2023-04-22T04:26:41;98142.81;;;28.35;38.28
31239;BME280;17871;31.584;74.450;2023-04-22T04:29:16;98130.63;;;28.47;38.15
31239;BME280;17871;31.584;74.450;2023-04-22T04:32:00;98134.28;;;28.57;37.48
31239;BME280;17871;31.584;74.450;2023-04-22T04:34:29;98134.06;;;28.73;37.20
31239;BME280;17871;31.584;74.450;2023-04-22T04:37:04;98142.28;;;28.68;37.43
31239;BME280;17871;31.584;74.450;2023-04-22T04:39:43;98138.59;;;28.58;36.32
31239;BME280;17871;31.584;74.450;2023-04-22T04:42:13;98143.31;;;28.78;37.18
31239;BME280;17871;31.584;74.450;2023-04-22T04:44:51;98146.03;;;28.90;37.38
31239;BME280;17871;31.584;74.450;2023-04-22T04:47:21;98147.72;;;28.65;36.48
31239;BME280;17871;31.584;74.450;2023-04-22T04:49:58;98148.41;;;28.81;37.16
31239;BME280;17871;31.584;74.450;2023-04-22T04:52:28;98156.81;;;28.74;36.67
31239;BME280;17871;31.584;74.450;2023-04-22T04:54:57;98156.28;;;28.69;35.59
31239;BME280;17871;31.584;74.450;2023-04-22T04:57:26;98164.91;;;29.20;35.96
31239;BME280;17871;31.584;74.450;2023-04-22T04:59:55;98167.06;;;29.02;35.52
31239;BME280;17871;31.584;74.450;2023-04-22T05:02:25;98169.81;;;29.01;35.11
31239;BME280;17871;31.584;74.450;2023-04-22T05:04:56;98168.84;;;29.02;35.03
31239;BME280;17871;31.584;74.450;2023-04-22T05:07:26;98177.53;;;28.91;34.94
31239;BME280;17871;31.584;74.450;2023-04-22T05:09:56;98189.53;;;29.31;35.56
31239;BME280;17871;31.584;74.450;2023-04-22T05:12:26;98188.50;;;29.34;36.14
31239;BME280;17871;31.584;74.450;2023-04-22T05:14:56;98200.06;;;29.31;37.54
31239;BME280;17871;31.584;74.450;2023-04-22T05:17:28;98196.34;;;29.70;37.01
31239;BME280;17871;31.584;74.450;2023-04-22T05:19:58;98216.63;;;29.57;36.29
31239;BME280;17871;31.584;74.450;2023-04-22T05:22:27;98208.53;;;29.71;36.19
31239;BME280;17871;31.584;74.450;2023-04-22T05:24:57;98211.97;;;29.37;35.93
31239;BME280;17871;31.584;74.450;2023-04-22T05:27:26;98203.09;;;29.38;35.54
31239;BME280;17871;31.584;74.450;2023-04-22T05:29:55;98205.91;;;29.48;34.49
31239;BME280;17871;31.584;74.450;2023-04-22T05:32:29;98204.69;;;29.41;34.78
31239;BME280;17871;31.584;74.450;2023-04-22T05:34:58;98196.94;;;29.14;35.17
31239;BME280;17871;31.584;74.450;2023-04-22T05:37:28;98204.53;;;29.06;35.03
31239;BME280;17871;31.584;74.450;2023-04-22T05:39:57;98216.56;;;28.84;35.66
31239;BME280;17871;31.584;74.450;2023-04-22T05:42:26;98227.72;;;29.01;35.11
31239;BME280;17871;31.584;74.450;2023-04-22T05:44:55;98238.72;;;29.31;35.97
31239;BME280;17871;31.584;74.450;2023-04-22T05:47:24;98250.41;;;29.02;37.07
31239;BME280;17871;31.584;74.450;2023-04-22T05:49:55;98258.41;;;28.62;37.77
31239;BME280;17871;31.584;74.450;2023-04-22T05:52:43;98266.63;;;28.58;38.91
31239;BME280;17871;31.584;74.450;2023-04-22T05:55:15;98263.09;;;28.84;38.51
31239;BME280;17871;31.584;74.450;2023-04-22T05:57:44;98261.16;;;28.99;38.48
31239;BME280;17871;31.584;74.450;2023-04-22T06:00:32;98260.97;;;28.76;38.13
31239;BME280;17871;31.584;74.450;2023-04-22T06:03:33;98257.06;;;28.69;37.93
31239;BME280;17871;31.584;74.450;2023-04-22T06:06:03;98243.91;;;28.69;38.41
31239;BME280;17871;31.584;74.450;2023-04-22T06:08:33;98229.81;;;28.45;37.51
31239;BME280;17871;31.584;74.450;2023-04-22T06:11:01;98213.47;;;28.40;37.38
31239;BME280;17871;31.584;74.450;2023-04-22T06:13:34;98238.22;;;28.63;37.24
31239;BME280;17871;31.584;74.450;2023-04-22T06:16:03;98240.00;;;28.62;37.36
31239;BME280;17871;31.584;74.450;2023-04-22T06:18:40;98222.78;;;28.71;37.72
31239;BME280;17871;31.584;74.450;2023-04-22T06:21:11;98233.16;;;28.60;37.24
31239;BME280;17871;31.584;74.450;2023-04-22T06:23:41;98229.66;;;28.34;35.85
31239;BME280;17871;31.584;74.450;2023-04-22T06:26:10;98224.34;;;28.48;36.18
31239;BME280;17871;31.584;74.450;2023-04-22T06:28:40;98220.84;;;28.60;35.97
31239;BME280;17871;31.584;74.450;2023-04-22T06:31:16;98226.84;;;28.62;35.25
31239;BME280;17871;31.584;74.450;2023-04-22T06:38:10;98200.94;;;29.07;35.46
31239;BME280;17871;31.584;74.450;2023-04-22T06:40:52;98199.47;;;29.03;34.98
31239;BME280;17871;31.584;74.450;2023-04-22T06:43:27;98189.06;;;29.50;34.66
31239;BME280;17871;31.584;74.450;2023-04-22T06:46:16;98198.69;;;29.62;34.98
31239;BME280;17871;31.584;74.450;2023-04-22T06:49:08;98193.59;;;29.72;34.23
31239;BME280;17871;31.584;74.450;2023-04-22T06:52:03;98185.94;;;30.04;34.35
31239;BME280;17871;31.584;74.450;2023-04-22T06:54:34;98175.16;;;29.72;31.75
31239;BME280;17871;31.584;74.450;2023-04-22T06:57:03;98183.19;;;29.81;31.33
31239;BME280;17871;31.584;74.450;2023-04-22T06:59:32;98175.38;;;29.93;31.45
31239;BME280;17871;31.584;74.450;2023-04-22T07:02:01;98172.53;;;30.07;31.67
31239;BME280;17871;31.584;74.450;2023-04-22T07:04:35;98166.63;;;29.92;30.58
31239;BME280;17871;31.584;74.450;2023-04-22T07:07:05;98153.13;;;30.08;30.79
31239;BME280;17871;31.584;74.450;2023-04-22T07:09:35;98151.22;;;30.56;29.90
31239;BME280;17871;31.584;74.450;2023-04-22T07:12:04;98150.84;;;30.49;29.89
31239;BME280;17871;31.584;74.450;2023-04-22T07:14:34;98153.72;;;30.68;29.84
31239;BME280;17871;31.584;74.450;2023-04-22T07:17:03;98148.44;;;30.57;29.58
31239;BME280;17871;31.584;74.450;2023-04-22T07:19:32;98150.97;;;30.59;29.50
31239;BME280;17871;31.584;74.450;2023-04-22T07:22:02;98149.88;;;30.50;29.49
31239;BME280;17871;31.584;74.450;2023-04-22T07:24:31;98154.69;;;30.45;29.32
31239;BME280;17871;31.584;74.450;2023-04-22T07:27:00;98155.53;;;30.68;29.72
31239;BME280;17871;31.584;74.450;2023-04-22T07:29:30;98152.41;;;30.74;28.99
31239;BME280;17871;31.584;74.450;2023-04-22T07:31:59;98150.59;;;31.08;28.73
31239;BME280;17871;31.584;74.450;2023-04-22T07:34:28;98151.78;;;30.93;28.25
31239;BME280;17871;31.584;74.450;2023-04-22T07:36:57;98144.75;;;31.36;28.38
31239;BME280;17871;31.584;74.450;2023-04-22T07:39:26;98138.03;;;31.43;27.53
31239;BME280;17871;31.584;74.450;2023-04-22T07:41:55;98136.25;;;31.96;28.14
31239;BME280;17871;31.584;74.450;2023-04-22T07:44:25;98142.81;;;32.13;27.11
31239;BME280;17871;31.584;74.450;2023-04-22T07:46:54;98144.09;;;32.18;28.22
31239;BME280;17871;31.584;74.450;2023-04-22T07:49:24;98137.06;;;32.08;27.12
31239;BME280;17871;31.584;74.450;2023-04-22T07:51:56;98144.56;;;31.71;26.80
31239;BME280;17871;31.584;74.450;2023-04-22T07:54:25;98125.09;;;32.34;26.05
31239;BME280;17871;31.584;74.450;2023-04-22T07:56:54;98122.06;;;32.59;26.59
31239;BME280;17871;31.584;74.450;2023-04-22T07:59:24;98125.06;;;32.85;27.48
31239;BME280;17871;31.584;74.450;2023-04-22T08:01:53;98120.56;;;32.66;26.68
31239;BME280;17871;31.584;74.450;2023-04-22T08:04:22;98121.47;;;32.86;25.93
31239;BME280;17871;31.584;74.450;2023-04-22T08:06:52;98123.94;;;32.78;26.21
31239;BME280;17871;31.584;74.450;2023-04-22T08:09:22;98122.50;;;32.64;26.21
31239;BME280;17871;31.584;74.450;2023-04-22T08:11:51;98116.25;;;32.75;25.67
31239;BME280;17871;31.584;74.450;2023-04-22T08:14:22;98110.91;;;33.05;26.45
31239;BME280;17871;31.584;74.450;2023-04-22T08:16:51;98103.47;;;33.29;25.85
31239;BME280;17871;31.584;74.450;2023-04-22T08:19:20;98102.47;;;33.21;25.21
31239;BME280;17871;31.584;74.450;2023-04-22T08:21:48;98104.44;;;33.28;25.45
31239;BME280;17871;31.584;74.450;2023-04-22T08:24:20;98106.47;;;32.66;24.39
31239;BME280;17871;31.584;74.450;2023-04-22T08:26:49;98099.75;;;33.02;25.16
31239;BME280;17871;31.584;74.450;2023-04-22T08:29:18;98101.28;;;32.95;24.59
31239;BME280;17871;31.584;74.450;2023-04-22T08:31:46;98097.28;;;33.10;24.02
31239;BME280;17871;31.584;74.450;2023-04-22T08:34:15;98089.78;;;33.24;24.99
31239;BME280;17871;31.584;74.450;2023-04-22T08:36:44;98091.38;;;32.97;23.65
31239;BME280;17871;31.584;74.450;2023-04-22T08:39:13;98083.72;;;33.03;24.09
31239;BME280;17871;31.584;74.450;2023-04-22T08:41:43;98080.16;;;33.23;26.26
31239;BME280;17871;31.584;74.450;2023-04-22T08:44:13;98086.72;;;33.19;24.31
31239;BME280;17871;31.584;74.450;2023-04-22T08:46:43;98094.28;;;32.84;24.18
31239;BME280;17871;31.584;74.450;2023-04-22T08:49:17;98079.91;;;32.77;24.14
31239;BME280;17871;31.584;74.450;2023-04-22T08:51:48;98073.81;;;32.96;25.10
31239;BME280;17871;31.584;74.450;2023-04-22T08:54:17;98078.22;;;33.16;24.61
31239;BME280;17871;31.584;74.450;2023-04-22T08:56:49;98067.19;;;33.20;24.82
31239;BME280;17871;31.584;74.450;2023-04-22T08:59:20;98071.47;;;33.02;24.32
31239;BME280;17871;31.584;74.450;2023-04-22T09:01:52;98059.50;;;32.58;24.93
31239;BME280;17871;31.584;74.450;2023-04-22T09:04:21;98063.72;;;32.30;24.70
31239;BME280;17871;31.584;74.450;2023-04-22T09:06:50;98054.47;;;32.55;25.09
31239;BME280;17871;31.584;74.450;2023-04-22T09:09:19;98055.69;;;33.01;25.15
31239;BME280;17871;31.584;74.450;2023-04-22T09:11:48;98046.38;;;33.06;24.94
31239;BME280;17871;31.584;74.450;2023-04-22T09:14:18;98051.16;;;33.22;24.64
31239;BME280;17871;31.584;74.450;2023-04-22T09:16:47;98047.75;;;32.91;24.91
31239;BME280;17871;31.584;74.450;2023-04-22T09:19:17;98051.44;;;33.19;25.24
31239;BME280;17871;31.584;74.450;2023-04-22T09:21:46;98042.50;;;33.10;24.80
31239;BME280;17871;31.584;74.450;2023-04-22T09:24:19;98037.41;;;32.69;24.56
31239;BME280;17871;31.584;74.450;2023-04-22T09:26:48;98038.41;;;32.97;24.63
31239;BME280;17871;31.584;74.450;2023-04-22T09:29:17;98033.28;;;33.05;25.19
31239;BME280;17871;31.584;74.450;2023-04-22T09:31:49;98024.38;;;33.34;26.44
31239;BME280;17871;31.584;74.450;2023-04-22T09:34:20;98024.22;;;33.07;26.32
31239;BME280;17871;31.584;74.450;2023-04-22T09:36:50;98022.38;;;32.79;25.54
31239;BME280;17871;31.584;74.450;2023-04-22T09:39:19;98015.31;;;32.49;25.31
31239;BME280;17871;31.584;74.450;2023-04-22T09:41:53;98014.28;;;32.80;25.50
31239;BME280;17871;31.584;74.450;2023-04-22T09:44:26;98018.47;;;32.73;25.19
31239;BME280;17871;31.584;74.450;2023-04-22T09:46:55;98005.66;;;32.98;25.43
31239;BME280;17871;31.584;74.450;2023-04-22T09:49:26;98011.91;;;32.77;25.88
31239;BME280;17871;31.584;74.450;2023-04-22T09:51:58;97998.97;;;32.84;24.84
31239;BME280;17871;31.584;74.450;2023-04-22T09:54:27;98008.78;;;32.53;25.86
31239;BME280;17871;31.584;74.450;2023-04-22T09:56:56;98007.25;;;32.11;25.79
31239;BME280;17871;31.584;74.450;2023-04-22T09:59:28;97997.72;;;32.38;24.88
31239;BME280;17871;31.584;74.450;2023-04-22T10:01:59;97992.53;;;32.67;25.09
31239;BME280;17871;31.584;74.450;2023-04-22T10:04:31;97990.69;;;32.58;25.59
31239;BME280;17871;31.584;74.450;2023-04-22T10:07:00;97991.59;;;32.38;25.32
31239;BME280;17871;31.584;74.450;2023-04-22T10:09:31;97986.03;;;32.41;25.50
31239;BME280;17871;31.584;74.450;2023-04-22T10:12:00;97986.88;;;32.51;25.19
31239;BME280;17871;31.584;74.450;2023-04-22T10:14:30;97981.81;;;32.29;25.23
31239;BME280;17871;31.584;74.450;2023-04-22T10:17:01;97983.28;;;32.52;25.83
31239;BME280;17871;31.584;74.450;2023-04-22T10:19:32;97982.16;;;32.45;24.99
31239;BME280;17871;31.584;74.450;2023-04-22T10:22:03;97970.59;;;32.46;25.98
31239;BME280;17871;31.584;74.450;2023-04-22T10:24:35;97969.09;;;32.53;25.38
31239;BME280;17871;31.584;74.450;2023-04-22T10:27:05;97974.16;;;32.66;26.53
31239;BME280;17871;31.584;74.450;2023-04-22T10:29:37;97971.72;;;32.53;26.07
31239;BME280;17871;31.584;74.450;2023-04-22T10:34:46;97979.53;;;32.15;25.73
31239;BME280;17871;31.584;74.450;2023-04-22T10:37:19;97968.41;;;32.21;26.30
31239;BME280;17871;31.584;74.450;2023-04-22T10:40:06;97967.13;;;32.46;26.77
31239;BME280;17871;31.584;74.450;2023-04-22T10:42:40;97966.03;;;32.58;26.15
31239;BME280;17871;31.584;74.450;2023-04-22T10:45:13;97955.13;;;32.51;25.61
31239;BME280;17871;31.584;74.450;2023-04-22T10:47:43;97962.22;;;32.41;25.70
31239;BME280;17871;31.584;74.450;2023-04-22T10:50:25;97959.13;;;32.26;25.60
31239;BME280;17871;31.584;74.450;2023-04-22T10:52:59;97954.13;;;32.23;25.72
31239;BME280;17871;31.584;74.450;2023-04-22T10:55:51;97944.09;;;32.27;26.07
31239;BME280;17871;31.584;74.450;2023-04-22T10:58:23;97947.25;;;32.21;26.08
31239;BME280;17871;31.584;74.450;2023-04-22T11:00:53;97943.88;;;32.49;26.23
31239;BME280;17871;31.584;74.450;2023-04-22T11:03:28;97951.94;;;32.48;26.23
31239;BME280;17871;31.584;74.450;2023-04-22T11:06:15;97948.44;;;31.98;26.08
31239;BME280;17871;31.584;74.450;2023-04-22T11:08:46;97938.28;;;32.03;25.82
31239;BME280;17871;31.584;74.450;2023-04-22T11:11:16;97936.44;;;32.24;25.85
31239;BME280;17871;31.584;74.450;2023-04-22T11:13:47;97942.69;;;31.93;26.48
31239;BME280;17871;31.584;74.450;2023-04-22T11:16:20;97935.56;;;32.14;25.52
31239;BME280;17871;31.584;74.450;2023-04-22T11:18:50;97937.72;;;32.39;25.54
31239;BME280;17871;31.584;74.450;2023-04-22T11:21:19;97938.72;;;32.08;25.70
31239;BME280;17871;31.584;74.450;2023-04-22T11:23:50;97936.16;;;32.27;25.68
31239;BME280;17871;31.584;74.450;2023-04-22T11:26:33;97939.81;;;32.55;25.53
31239;BME280;17871;31.584;74.450;2023-04-22T11:29:02;97932.31;;;32.50;25.65
31239;BME280;17871;31.584;74.450;2023-04-22T11:31:31;97932.03;;;32.44;25.78
31239;BME280;17871;31.584;74.450;2023-04-22T11:34:00;97933.38;;;32.38;25.79
31239;BME280;17871;31.584;74.450;2023-04-22T11:36:29;97934.38;;;32.37;25.50
31239;BME280;17871;31.584;74.450;2023-04-22T11:38:58;97942.91;;;32.50;25.74
31239;BME280;17871;31.584;74.450;2023-04-22T11:41:28;97943.22;;;32.66;26.01
31239;BME280;17871;31.584;74.450;2023-04-22T11:43:59;97937.09;;;32.66;25.53
31239;BME280;17871;31.584;74.450;2023-04-22T11:46:29;97937.50;;;32.61;25.17
31239;BME280;17871;31.584;74.450;2023-04-22T11:49:12;97935.00;;;32.69;25.76
31239;BME280;17871;31.584;74.450;2023-04-22T11:51:56;97934.34;;;32.86;25.53
31239;BME280;17871;31.584;74.450;2023-04-22T11:54:32;97936.69;;;32.89;24.77
31239;BME280;17871;31.584;74.450;2023-04-22T11:57:10;97936.25;;;33.04;25.00
31239;BME280;17871;31.584;74.450;2023-04-22T11:59:43;97931.25;;;32.81;24.67
31239;BME280;17871;31.584;74.450;2023-04-22T12:02:12;97932.66;;;32.85;24.86
31239;BME280;17871;31.584;74.450;2023-04-22T12:04:42;97937.09;;;32.95;24.93
31239;BME280;17871;31.584;74.450;2023-04-22T12:07:11;97939.59;;;32.67;25.25
31239;BME280;17871;31.584;74.450;2023-04-22T12:09:40;97942.50;;;32.64;25.74
31239;BME280;17871;31.584;74.450;2023-04-22T12:12:09;97934.81;;;32.52;25.30
31239;BME280;17871;31.584;74.450;2023-04-22T12:14:38;97933.66;;;32.35;25.02
31239;BME280;17871;31.584;74.450;2023-04-22T12:17:10;97944.78;;;32.29;25.45
31239;BME280;17871;31.584;74.450;2023-04-22T12:19:39;97942.72;;;32.32;25.64
31239;BME280;17871;31.584;74.450;2023-04-22T12:22:08;97939.09;;;32.24;25.59
31239;BME280;17871;31.584;74.450;2023-04-22T12:24:43;97933.53;;;31.97;25.78
31239;BME280;17871;31.584;74.450;2023-04-22T12:27:13;97928.31;;;32.06;25.59
31239;BME280;17871;31.584;74.450;2023-04-22T12:29:51;97933.25;;;32.00;26.58
31239;BME280;17871;31.584;74.450;2023-04-22T12:32:21;97933.44;;;32.08;25.91
31239;BME280;17871;31.584;74.450;2023-04-22T12:34:52;97934.16;;;32.10;25.66
31239;BME280;17871;31.584;74.450;2023-04-22T12:37:20;97934.06;;;31.91;25.80
31239;BME280;17871;31.584;74.450;2023-04-22T12:39:49;97935.16;;;31.88;25.91
31239;BME280;17871;31.584;74.450;2023-04-22T12:42:18;97932.94;;;31.83;26.45
31239;BME280;17871;31.584;74.450;2023-04-22T12:44:48;97944.28;;;31.74;26.41
31239;BME280;17871;31.584;74.450;2023-04-22T12:47:16;97942.28;;;31.46;26.48
31239;BME280;17871;31.584;74.450;2023-04-22T12:49:45;97948.75;;;31.53;26.81
31239;BME280;17871;31.584;74.450;2023-04-22T12:52:15;97937.00;;;31.46;27.13
31239;BME280;17871;31.584;74.450;2023-04-22T12:54:44;97940.16;;;31.40;26.73
31239;BME280;17871;31.584;74.450;2023-04-22T12:57:13;97943.34;;;31.34;27.03
31239;BME280;17871;31.584;74.450;2023-04-22T12:59:42;97941.22;;;31.28;27.69
31239;BME280;17871;31.584;74.450;2023-04-22T13:02:12;97943.59;;;31.31;27.98
31239;BME280;17871;31.584;74.450;2023-04-22T13:04:41;97940.03;;;31.21;28.23
31239;BME280;17871;31.584;74.450;2023-04-22T13:07:10;97942.69;;;31.21;28.10
31239;BME280;17871;31.584;74.450;2023-04-22T13:09:40;97950.22;;;31.05;28.54
31239;BME280;17871;31.584;74.450;2023-04-22T13:12:09;97950.47;;;30.91;28.67
31239;BME280;17871;31.584;74.450;2023-04-22T13:14:38;97949.38;;;30.93;28.57
31239;BME280;17871;31.584;74.450;2023-04-22T13:17:07;97947.84;;;30.91;28.90
31239;BME280;17871;31.584;74.450;2023-04-22T13:19:36;97949.03;;;30.86;29.45